Time;durP1;ratioP1;P1;durP2;ratioP2;P2;SDS_P1;SDS_P2;PMS_P1;PMS_P2;Temp;Humidity;BMP_temperature;BMP_pressure;BME280_temperature;BME280_humidity;BME280_pressure;Samples;Min_cycle;Max_cycle;Signal;HPM_P1;HPM_P2
2023/09/30 00:00:28;;;;;;;10.15;3.75;;;;;;;;;;5115467;28;20090;-75
2023/09/30 00:02:54;;;;;;;12.45;3.60;;;;;;;;;;5114835;28;20036;-75
2023/09/30 00:05:20;;;;;;;9.35;3.67;;;;;;;;;;5107177;28;20047;-75
2023/09/30 00:07:46;;;;;;;9.98;4.20;;;;;;;;;;5100202;28;20039;-75
2023/09/30 00:10:12;;;;;;;9.73;4.15;;;;;;;;;;5115341;28;20042;-75
2023/09/30 00:12:38;;;;;;;13.07;3.92;;;;;;;;;;5102624;28;20266;-75
2023/09/30 00:15:05;;;;;;;10.80;3.65;;;;;;;;;;5115079;28;20472;-75
2023/09/30 00:17:31;;;;;;;8.80;3.60;;;;;;;;;;5112933;28;20047;-75
2023/09/30 00:19:57;;;;;;;10.07;3.88;;;;;;;;;;5111433;28;20048;-75
2023/09/30 00:22:23;;;;;;;11.82;3.72;;;;;;;;;;5115133;28;20035;-75
2023/09/30 00:24:49;;;;;;;10.38;4.05;;;;;;;;;;5111515;28;20101;-75
2023/09/30 00:27:15;;;;;;;10.95;3.55;;;;;;;;;;5107402;28;20130;-75
2023/09/30 00:29:41;;;;;;;12.43;3.90;;;;;;;;;;5101640;28;20083;-75
2023/09/30 00:32:07;;;;;;;12.73;4.25;;;;;;;;;;5094259;28;20434;-75
2023/09/30 00:34:36;;;;;;;10.00;4.07;;;;;;;;;;5106324;28;20091;-75
2023/09/30 00:37:03;;;;;;;9.80;3.38;;;;;;;;;;5109245;28;20427;-75
2023/09/30 00:39:32;;;;;;;9.60;3.70;;;;;;;;;;5104183;28;20059;-75
2023/09/30 00:41:58;;;;;;;10.90;3.92;;;;;;;;;;5099808;28;20036;-75
2023/09/30 00:44:25;;;;;;;9.35;3.53;;;;;;;;;;5114675;28;20472;-75
2023/09/30 00:46:52;;;;;;;10.75;3.85;;;;;;;;;;5109829;28;20078;-75
2023/09/30 00:49:18;;;;;;;10.82;4.07;;;;;;;;;;5107225;28;20127;-75
2023/09/30 00:51:45;;;;;;;8.77;3.35;;;;;;;;;;5126734;27;20056;-75
2023/09/30 00:54:11;;;;;;;9.10;3.83;;;;;;;;;;5112283;28;20047;-75
2023/09/30 00:56:41;;;;;;;12.57;3.50;;;;;;;;;;5114359;28;20421;-75
2023/09/30 00:59:07;;;;;;;7.65;3.30;;;;;;;;;;5114348;28;20047;-75
2023/09/30 01:01:33;;;;;;;7.70;3.17;;;;;;;;;;5101308;28;20133;-75
2023/09/30 01:03:59;;;;;;;8.18;3.25;;;;;;;;;;5107291;28;20491;-75
2023/09/30 01:06:26;;;;;;;12.90;3.92;;;;;;;;;;5108616;28;20051;-75
2023/09/30 01:08:52;;;;;;;10.88;4.10;;;;;;;;;;5112092;28;20054;-75
2023/09/30 01:11:19;;;;;;;11.95;3.70;;;;;;;;;;5111818;28;20051;-75
2023/09/30 01:13:47;;;;;;;12.27;4.10;;;;;;;;;;5106587;28;20111;-75
2023/09/30 01:16:13;;;;;;;9.43;3.70;;;;;;;;;;5113744;28;20118;-75
2023/09/30 01:18:42;;;;;;;6.90;3.47;;;;;;;;;;5101841;28;20102;-75
2023/09/30 01:21:09;;;;;;;11.02;3.95;;;;;;;;;;5113969;28;20127;-75
2023/09/30 01:23:35;;;;;;;13.68;3.95;;;;;;;;;;5111812;28;20043;-75
2023/09/30 01:26:03;;;;;;;7.30;3.55;;;;;;;;;;5106801;28;20048;-75
2023/09/30 01:28:29;;;;;;;11.60;4.18;;;;;;;;;;5107492;28;20055;-75
2023/09/30 01:30:55;;;;;;;13.65;3.70;;;;;;;;;;5113987;28;20035;-75
2023/09/30 01:33:23;;;;;;;10.70;3.47;;;;;;;;;;5111884;28;20077;-75
2023/09/30 01:35:49;;;;;;;11.27;4.00;;;;;;;;;;5110626;28;20100;-75
2023/09/30 01:38:15;;;;;;;11.65;4.00;;;;;;;;;;5101345;28;20046;-75
2023/09/30 01:40:42;;;;;;;9.57;3.58;;;;;;;;;;5103843;28;20051;-75
2023/09/30 01:43:08;;;;;;;10.50;3.55;;;;;;;;;;5110814;28;20055;-75
2023/09/30 01:45:35;;;;;;;12.65;3.72;;;;;;;;;;5104225;28;20118;-75
2023/09/30 01:48:01;;;;;;;9.18;3.58;;;;;;;;;;5113197;28;20059;-75
2023/09/30 01:50:27;;;;;;;7.43;3.40;;;;;;;;;;5113594;28;20067;-74
2023/09/30 01:52:53;;;;;;;12.73;3.63;;;;;;;;;;5109684;28;20043;-75
2023/09/30 01:55:19;;;;;;;10.05;3.67;;;;;;;;;;5111620;28;20559;-75
2023/09/30 01:57:45;;;;;;;7.00;3.55;;;;;;;;;;5099408;28;20047;-75
2023/09/30 02:00:12;;;;;;;8.45;3.50;;;;;;;;;;5103141;28;20051;-75
2023/09/30 02:02:38;;;;;;;8.68;3.30;;;;;;;;;;5095473;28;20094;-75
2023/09/30 02:05:07;;;;;;;10.50;3.63;;;;;;;;;;5113307;28;20035;-75
2023/09/30 02:07:34;;;;;;;9.00;3.95;;;;;;;;;;5110212;28;20202;-75
2023/09/30 02:10:01;;;;;;;12.18;3.63;;;;;;;;;;5106198;28;20044;-75
2023/09/30 02:12:28;;;;;;;7.97;3.80;;;;;;;;;;5112905;28;20088;-75
2023/09/30 02:14:54;;;;;;;10.38;3.45;;;;;;;;;;5113008;28;20040;-75
2023/09/30 02:17:20;;;;;;;6.35;3.63;;;;;;;;;;5112119;28;20036;-75
2023/09/30 02:19:47;;;;;;;8.57;3.72;;;;;;;;;;5112955;28;20059;-75
2023/09/30 02:22:13;;;;;;;9.60;3.42;;;;;;;;;;5112756;28;20044;-75
2023/09/30 02:24:40;;;;;;;12.40;3.85;;;;;;;;;;5106882;28;20143;-75
2023/09/30 02:27:06;;;;;;;7.57;3.70;;;;;;;;;;5112917;28;20050;-75
2023/09/30 02:29:32;;;;;;;14.55;4.35;;;;;;;;;;5104728;28;20097;-75
2023/09/30 02:31:59;;;;;;;10.00;3.60;;;;;;;;;;5099651;28;20044;-75
2023/09/30 02:34:25;;;;;;;11.23;3.75;;;;;;;;;;5117326;28;20047;-75
2023/09/30 02:36:51;;;;;;;9.15;3.88;;;;;;;;;;5117096;28;20107;-75
2023/09/30 02:39:17;;;;;;;9.05;3.88;;;;;;;;;;5105695;28;20399;-75
2023/09/30 02:41:44;;;;;;;8.48;3.40;;;;;;;;;;5113735;28;20044;-75
2023/09/30 02:44:10;;;;;;;8.80;3.47;;;;;;;;;;5116924;28;20083;-75
2023/09/30 02:46:37;;;;;;;8.63;3.83;;;;;;;;;;5115240;28;20483;-75
2023/09/30 02:49:03;;;;;;;7.40;3.45;;;;;;;;;;5116445;28;20074;-75
2023/09/30 02:51:30;;;;;;;10.32;3.63;;;;;;;;;;5116785;28;20422;-75
2023/09/30 02:53:56;;;;;;;11.00;3.85;;;;;;;;;;5104264;28;20040;-75
2023/09/30 02:56:24;;;;;;;9.15;4.32;;;;;;;;;;5114438;28;20075;-74
2023/09/30 02:58:54;;;;;;;9.93;3.50;;;;;;;;;;5116195;28;20081;-74
2023/09/30 03:01:20;;;;;;;8.93;3.55;;;;;;;;;;5096331;28;20044;-75
2023/09/30 03:03:46;;;;;;;8.85;3.50;;;;;;;;;;5108117;28;20398;-75
2023/09/30 03:06:14;;;;;;;10.70;3.75;;;;;;;;;;5122049;27;20046;-75
2023/09/30 03:08:41;;;;;;;8.18;3.40;;;;;;;;;;5109240;27;20052;-75
2023/09/30 03:11:07;;;;;;;6.35;3.25;;;;;;;;;;5115116;28;20105;-75
2023/09/30 03:13:33;;;;;;;10.02;3.50;;;;;;;;;;5116390;28;20118;-75
2023/09/30 03:16:01;;;;;;;11.70;3.83;;;;;;;;;;5101686;28;20078;-75
2023/09/30 03:18:28;;;;;;;12.55;3.95;;;;;;;;;;5095642;28;20054;-75
2023/09/30 03:21:00;;;;;;;10.25;3.95;;;;;;;;;;5115570;28;20048;-75
2023/09/30 03:23:30;;;;;;;9.07;3.65;;;;;;;;;;5112506;28;20047;-75
2023/09/30 03:25:59;;;;;;;7.97;3.63;;;;;;;;;;5114239;28;20044;-75
2023/09/30 03:28:25;;;;;;;8.13;3.50;;;;;;;;;;5111219;28;20046;-75
2023/09/30 03:30:51;;;;;;;8.63;3.40;;;;;;;;;;5114108;28;20044;-75
2023/09/30 03:33:17;;;;;;;9.02;3.25;;;;;;;;;;5115558;28;20104;-75
2023/09/30 03:35:44;;;;;;;10.52;3.30;;;;;;;;;;5114712;28;20484;-75
2023/09/30 03:38:10;;;;;;;10.25;3.60;;;;;;;;;;5113582;28;20118;-75
2023/09/30 03:40:38;;;;;;;9.23;4.45;;;;;;;;;;5115481;28;20560;-75
2023/09/30 03:43:10;;;;;;;10.57;3.50;;;;;;;;;;5110509;28;20104;-75
2023/09/30 03:45:39;;;;;;;5.93;3.22;;;;;;;;;;5105021;28;20048;-75
2023/09/30 03:48:06;;;;;;;10.93;3.63;;;;;;;;;;5115604;28;20052;-75
2023/09/30 03:50:32;;;;;;;11.00;4.22;;;;;;;;;;5115669;28;20510;-75
2023/09/30 03:53:09;;;;;;;8.77;4.03;;;;;;;;;;5110012;28;20388;-75
2023/09/30 03:55:36;;;;;;;8.05;3.78;;;;;;;;;;5116039;27;20052;-75
2023/09/30 03:58:03;;;;;;;8.50;3.63;;;;;;;;;;5104350;28;20472;-75
2023/09/30 04:00:29;;;;;;;6.47;3.10;;;;;;;;;;5094703;28;20055;-75
2023/09/30 04:02:58;;;;;;;7.35;3.55;;;;;;;;;;5099200;28;20095;-75
2023/09/30 04:05:29;;;;;;;10.63;3.30;;;;;;;;;;5103981;28;20518;-75
2023/09/30 04:07:55;;;;;;;7.13;3.05;;;;;;;;;;5100981;28;20035;-75
2023/09/30 04:10:22;;;;;;;7.15;3.30;;;;;;;;;;5115239;28;20048;-74
2023/09/30 04:12:48;;;;;;;9.27;3.50;;;;;;;;;;5112171;27;20048;-75
2023/09/30 04:15:15;;;;;;;8.35;3.92;;;;;;;;;;5112158;28;20491;-75
2023/09/30 04:17:41;;;;;;;9.30;3.80;;;;;;;;;;5101315;28;20405;-75
2023/09/30 04:20:15;;;;;;;7.82;3.45;;;;;;;;;;5115027;28;20101;-75
2023/09/30 04:22:46;;;;;;;5.10;3.13;;;;;;;;;;5101787;28;20055;-75
2023/09/30 04:25:12;;;;;;;9.18;3.90;;;;;;;;;;5099719;28;20052;-75
2023/09/30 04:27:38;;;;;;;9.77;3.63;;;;;;;;;;5109427;28;20055;-75
2023/09/30 04:30:08;;;;;;;7.53;3.50;;;;;;;;;;5099263;28;20082;-75
2023/09/30 04:32:34;;;;;;;8.90;3.45;;;;;;;;;;5115455;28;20093;-75
2023/09/30 04:35:00;;;;;;;8.70;3.67;;;;;;;;;;5114980;28;20122;-75
2023/09/30 04:37:26;;;;;;;9.55;3.65;;;;;;;;;;5113945;28;20127;-75
2023/09/30 04:39:53;;;;;;;6.63;3.25;;;;;;;;;;5113919;28;20138;-75
2023/09/30 04:42:19;;;;;;;10.43;3.10;;;;;;;;;;5113676;28;20048;-75
2023/09/30 04:44:45;;;;;;;6.38;3.10;;;;;;;;;;5110927;28;20043;-75
2023/09/30 04:47:11;;;;;;;7.90;3.60;;;;;;;;;;5114988;28;20036;-75
2023/09/30 04:49:37;;;;;;;10.27;3.08;;;;;;;;;;5114359;28;20093;-75
2023/09/30 04:52:07;;;;;;;7.28;3.25;;;;;;;;;;5106695;28;20456;-75
2023/09/30 04:54:35;;;;;;;7.18;3.00;;;;;;;;;;5113490;28;20056;-75
2023/09/30 04:57:01;;;;;;;13.15;3.40;;;;;;;;;;5113578;27;20043;-75
2023/09/30 04:59:28;;;;;;;7.22;3.40;;;;;;;;;;5110926;28;20043;-75
2023/09/30 05:01:54;;;;;;;7.07;3.30;;;;;;;;;;5108447;28;20044;-75
2023/09/30 05:04:20;;;;;;;11.52;3.60;;;;;;;;;;5113757;28;20039;-75
2023/09/30 05:06:46;;;;;;;7.68;3.45;;;;;;;;;;5114269;28;20054;-75
2023/09/30 05:09:12;;;;;;;9.38;3.60;;;;;;;;;;5101679;28;20555;-75
2023/09/30 05:11:39;;;;;;;13.57;4.00;;;;;;;;;;5106572;28;20083;-75
2023/09/30 05:14:05;;;;;;;9.25;3.55;;;;;;;;;;5112813;28;20036;-75
2023/09/30 05:16:31;;;;;;;11.90;3.55;;;;;;;;;;5107706;28;20058;-75
2023/09/30 05:18:57;;;;;;;10.13;4.10;;;;;;;;;;5097184;28;20048;-75
2023/09/30 05:21:23;;;;;;;8.80;3.67;;;;;;;;;;5113775;28;20112;-75
2023/09/30 05:23:50;;;;;;;9.70;3.63;;;;;;;;;;5113548;28;20045;-75
2023/09/30 05:26:16;;;;;;;7.47;3.78;;;;;;;;;;5114034;28;20055;-75
2023/09/30 05:28:42;;;;;;;8.57;3.58;;;;;;;;;;5111944;28;20046;-75
2023/09/30 05:31:09;;;;;;;7.53;3.53;;;;;;;;;;5104246;28;20108;-75
2023/09/30 05:33:36;;;;;;;11.15;3.90;;;;;;;;;;5112863;28;20479;-75
2023/09/30 05:36:03;;;;;;;11.07;4.03;;;;;;;;;;5113633;28;20558;-75
2023/09/30 05:38:31;;;;;;;12.30;3.75;;;;;;;;;;5109054;28;20050;-75
2023/09/30 05:40:58;;;;;;;8.13;3.30;;;;;;;;;;5102745;28;20060;-75
2023/09/30 05:43:26;;;;;;;9.02;3.75;;;;;;;;;;5106084;28;20048;-75
2023/09/30 05:45:54;;;;;;;13.43;4.18;;;;;;;;;;5099095;28;20509;-75
2023/09/30 05:48:23;;;;;;;7.55;3.17;;;;;;;;;;5109363;28;20499;-75
2023/09/30 05:50:49;;;;;;;7.68;3.20;;;;;;;;;;5102259;28;20211;-75
2023/09/30 05:53:15;;;;;;;11.93;3.75;;;;;;;;;;5111645;28;20039;-75
2023/09/30 05:55:43;;;;;;;6.78;4.00;;;;;;;;;;5113502;28;20050;-75
2023/09/30 05:58:13;;;;;;;7.85;3.42;;;;;;;;;;5094959;28;20492;-78
2023/09/30 06:00:41;;;;;;;9.13;3.42;;;;;;;;;;5092415;28;20085;-76
2023/09/30 06:03:08;;;;;;;7.47;3.97;;;;;;;;;;5103575;28;20058;-76
2023/09/30 06:05:34;;;;;;;7.10;3.38;;;;;;;;;;5105707;28;20044;-76
2023/09/30 06:08:04;;;;;;;7.28;3.22;;;;;;;;;;5113026;28;20078;-76
2023/09/30 06:10:30;;;;;;;8.32;3.50;;;;;;;;;;5113039;28;20047;-76
2023/09/30 06:12:58;;;;;;;9.90;3.70;;;;;;;;;;5112981;28;20126;-76
2023/09/30 06:15:27;;;;;;;9.35;4.53;;;;;;;;;;5108129;28;20054;-76
2023/09/30 06:17:53;;;;;;;9.75;3.72;;;;;;;;;;5094085;28;20032;-76
2023/09/30 06:20:22;;;;;;;8.52;3.58;;;;;;;;;;5105945;28;20122;-76
2023/09/30 06:22:51;;;;;;;6.35;3.28;;;;;;;;;;5095784;28;20123;-76
2023/09/30 06:25:18;;;;;;;11.43;3.58;;;;;;;;;;5112005;28;20046;-76
2023/09/30 06:27:47;;;;;;;9.43;3.75;;;;;;;;;;5108944;28;20038;-76
2023/09/30 06:30:13;;;;;;;10.15;3.67;;;;;;;;;;5110529;28;20043;-76
2023/09/30 06:32:40;;;;;;;9.45;3.53;;;;;;;;;;5107384;28;20100;-76
2023/09/30 06:35:08;;;;;;;8.93;3.28;;;;;;;;;;5113214;28;20046;-76
2023/09/30 06:37:34;;;;;;;8.35;3.60;;;;;;;;;;5108380;28;20496;-76
2023/09/30 06:40:03;;;;;;;7.45;3.40;;;;;;;;;;5108327;28;20052;-76
2023/09/30 06:42:30;;;;;;;7.15;3.72;;;;;;;;;;5104214;28;20055;-76
2023/09/30 06:44:56;;;;;;;9.25;3.50;;;;;;;;;;5111998;28;20491;-76
2023/09/30 06:47:22;;;;;;;8.73;3.92;;;;;;;;;;5112588;28;20039;-76
2023/09/30 06:49:48;;;;;;;9.90;3.65;;;;;;;;;;5099210;28;20043;-76
2023/09/30 06:52:14;;;;;;;7.00;3.35;;;;;;;;;;5112594;28;20044;-79
2023/09/30 06:54:40;;;;;;;7.28;3.40;;;;;;;;;;5101303;28;20070;-76
2023/09/30 06:57:08;;;;;;;9.15;4.13;;;;;;;;;;5096886;28;20364;-76
2023/09/30 06:59:34;;;;;;;10.88;3.78;;;;;;;;;;5100817;28;20084;-76
2023/09/30 07:02:00;;;;;;;7.05;3.45;;;;;;;;;;5107781;28;20484;-76
2023/09/30 07:04:26;;;;;;;11.07;3.80;;;;;;;;;;5107027;28;20445;-76
2023/09/30 07:06:53;;;;;;;9.45;3.33;;;;;;;;;;5104174;28;20105;-76
2023/09/30 07:09:20;;;;;;;9.23;3.60;;;;;;;;;;5110737;28;20044;-76
2023/09/30 07:11:46;;;;;;;11.65;3.85;;;;;;;;;;5112385;28;20043;-76
2023/09/30 07:14:12;;;;;;;9.82;3.85;;;;;;;;;;5110431;28;20040;-76
2023/09/30 07:16:40;;;;;;;6.70;3.63;;;;;;;;;;5102748;28;20078;-76
2023/09/30 07:19:07;;;;;;;8.95;3.30;;;;;;;;;;5102253;28;20048;-76
2023/09/30 07:21:33;;;;;;;13.25;3.28;;;;;;;;;;5096882;28;20083;-76
2023/09/30 07:23:59;;;;;;;8.50;3.30;;;;;;;;;;5104893;27;20040;-76
2023/09/30 07:26:25;;;;;;;9.25;3.70;;;;;;;;;;5107905;28;20096;-76
2023/09/30 07:28:53;;;;;;;13.02;3.80;;;;;;;;;;5116034;28;20040;-76
2023/09/30 07:31:19;;;;;;;7.30;3.55;;;;;;;;;;5107950;28;20043;-77
2023/09/30 07:33:46;;;;;;;8.35;3.95;;;;;;;;;;5110925;27;20108;-76
2023/09/30 07:36:14;;;;;;;10.80;4.05;;;;;;;;;;5113315;28;20071;-76
2023/09/30 07:38:40;;;;;;;9.60;3.10;;;;;;;;;;5109191;28;20090;-76
2023/09/30 07:41:08;;;;;;;9.90;3.50;;;;;;;;;;5116033;28;20058;-78
2023/09/30 07:43:34;;;;;;;15.40;4.25;;;;;;;;;;5100072;28;20035;-77
2023/09/30 07:46:05;;;;;;;10.70;3.60;;;;;;;;;;5112485;28;20455;-76
2023/09/30 07:48:32;;;;;;;8.57;3.40;;;;;;;;;;5110190;28;20096;-77
2023/09/30 07:50:58;;;;;;;7.75;3.13;;;;;;;;;;5115540;28;20093;-77
2023/09/30 07:53:24;;;;;;;8.05;3.03;;;;;;;;;;5115736;28;20134;-76
2023/09/30 07:55:50;;;;;;;10.00;3.53;;;;;;;;;;5114930;27;20522;-77
2023/09/30 07:58:16;;;;;;;9.52;3.33;;;;;;;;;;5094388;28;20326;-76
2023/09/30 08:00:43;;;;;;;13.20;4.03;;;;;;;;;;5108028;28;20046;-78
2023/09/30 08:03:09;;;;;;;9.32;3.75;;;;;;;;;;5113845;28;20078;-77
2023/09/30 08:05:35;;;;;;;8.75;3.70;;;;;;;;;;5116046;28;20071;-80
2023/09/30 08:08:02;;;;;;;8.27;3.05;;;;;;;;;;5098306;28;20048;-77
2023/09/30 08:10:29;;;;;;;13.57;4.00;;;;;;;;;;5109332;28;20090;-77
2023/09/30 08:12:57;;;;;;;12.25;3.40;;;;;;;;;;5115419;28;20035;-77
2023/09/30 08:15:24;;;;;;;9.27;3.75;;;;;;;;;;5114988;28;20588;-77
2023/09/30 08:17:50;;;;;;;10.48;3.63;;;;;;;;;;5107547;28;20066;-77
2023/09/30 08:20:16;;;;;;;10.25;3.53;;;;;;;;;;5115196;28;20047;-77
2023/09/30 08:22:42;;;;;;;10.10;4.18;;;;;;;;;;5111087;28;20168;-77
2023/09/30 08:25:08;;;;;;;10.65;4.20;;;;;;;;;;5108157;28;20051;-77
2023/09/30 08:27:34;;;;;;;9.93;3.60;;;;;;;;;;5106820;28;20047;-78
2023/09/30 08:30:04;;;;;;;7.65;3.10;;;;;;;;;;5114298;28;20499;-77
2023/09/30 08:32:32;;;;;;;10.05;3.50;;;;;;;;;;5106799;28;20048;-77
2023/09/30 08:34:58;;;;;;;11.90;3.65;;;;;;;;;;5109590;28;20039;-77
2023/09/30 08:37:24;;;;;;;10.88;3.13;;;;;;;;;;5113409;28;20069;-77
2023/09/30 08:39:50;;;;;;;10.27;3.20;;;;;;;;;;5111482;28;20062;-77
2023/09/30 08:42:18;;;;;;;5.72;2.90;;;;;;;;;;5108252;28;20043;-77
2023/09/30 08:44:44;;;;;;;8.25;3.00;;;;;;;;;;5111789;28;20445;-77
2023/09/30 08:47:11;;;;;;;8.77;2.95;;;;;;;;;;5102787;28;20119;-77
2023/09/30 08:49:41;;;;;;;8.85;2.85;;;;;;;;;;5100782;28;20044;-77
2023/09/30 08:52:10;;;;;;;7.95;2.78;;;;;;;;;;5114051;28;20050;-77
2023/09/30 08:54:37;;;;;;;10.05;3.00;;;;;;;;;;5112651;28;20055;-77
2023/09/30 08:57:04;;;;;;;7.47;2.83;;;;;;;;;;5114671;28;20122;-77
2023/09/30 08:59:31;;;;;;;9.23;2.60;;;;;;;;;;5099282;28;20396;-77
2023/09/30 09:01:58;;;;;;;8.65;2.88;;;;;;;;;;5107027;28;20043;-77
2023/09/30 09:04:25;;;;;;;15.10;3.42;;;;;;;;;;5113768;28;20067;-77
2023/09/30 09:06:51;;;;;;;8.43;2.88;;;;;;;;;;5114101;28;20047;-78
2023/09/30 09:09:18;;;;;;;8.73;2.60;;;;;;;;;;5112735;28;20388;-77
2023/09/30 09:11:44;;;;;;;8.85;2.65;;;;;;;;;;5114066;28;20048;-77
2023/09/30 09:14:11;;;;;;;10.20;2.75;;;;;;;;;;5108298;28;20059;-77
2023/09/30 09:16:37;;;;;;;11.20;3.15;;;;;;;;;;5095751;28;20040;-77
2023/09/30 09:19:15;;;;;;;7.13;2.50;;;;;;;;;;5110924;28;20167;-77
2023/09/30 09:22:04;;;;;;;8.18;2.22;;;;;;;;;;5113896;28;20050;-77
2023/09/30 09:24:34;;;;;;;8.48;2.47;;;;;;;;;;5102229;28;20043;-78
2023/09/30 09:27:10;;;;;;;6.93;2.30;;;;;;;;;;5100102;28;20039;-77
2023/09/30 09:29:39;;;;;;;10.98;2.30;;;;;;;;;;5104931;28;20075;-77
2023/09/30 09:32:12;;;;;;;6.70;3.17;;;;;;;;;;5110842;28;20043;-78
2023/09/30 09:34:39;;;;;;;9.50;2.78;;;;;;;;;;5101243;28;20079;-78
2023/09/30 09:37:15;;;;;;;9.02;2.47;;;;;;;;;;5106654;28;20048;-77
2023/09/30 09:39:49;;;;;;;8.95;3.08;;;;;;;;;;5105662;28;20554;-78
2023/09/30 09:42:24;;;;;;;6.30;2.10;;;;;;;;;;5113576;28;20120;-77
2023/09/30 09:44:50;;;;;;;9.68;2.42;;;;;;;;;;5112906;28;20122;-77
2023/09/30 09:47:17;;;;;;;5.78;2.10;;;;;;;;;;5107503;28;20122;-77
2023/09/30 09:49:43;;;;;;;8.18;2.70;;;;;;;;;;5109039;28;20051;-77
2023/09/30 09:52:11;;;;;;;7.57;2.60;;;;;;;;;;5104289;28;20491;-77
2023/09/30 09:54:37;;;;;;;6.68;2.20;;;;;;;;;;5108973;28;20554;-77
2023/09/30 09:57:04;;;;;;;4.32;2.10;;;;;;;;;;5113223;28;20491;-77
2023/09/30 09:59:31;;;;;;;7.43;2.55;;;;;;;;;;5112938;28;20499;-80
2023/09/30 10:01:59;;;;;;;7.90;2.40;;;;;;;;;;5110210;28;20105;-77
2023/09/30 10:04:25;;;;;;;7.93;2.40;;;;;;;;;;5099472;28;20040;-77
2023/09/30 10:06:52;;;;;;;7.40;2.00;;;;;;;;;;5102992;28;20607;-76
2023/09/30 10:09:19;;;;;;;7.45;2.50;;;;;;;;;;5110303;28;20118;-77
2023/09/30 10:11:46;;;;;;;6.05;2.50;;;;;;;;;;5113474;28;20044;-77
2023/09/30 10:14:30;;;;;;;8.32;2.63;;;;;;;;;;5112972;28;20040;-77
2023/09/30 10:16:56;;;;;;;6.05;2.20;;;;;;;;;;5101347;28;20067;-77
2023/09/30 10:19:22;;;;;;;8.00;2.72;;;;;;;;;;5111279;28;20047;-77
2023/09/30 10:22:07;;;;;;;8.60;2.55;;;;;;;;;;5124905;28;20115;-76
2023/09/30 10:24:33;;;;;;;9.25;2.65;;;;;;;;;;5110400;28;20043;-76
2023/09/30 10:27:19;;;;;;;9.23;2.17;;;;;;;;;;5116277;28;20036;-76
2023/09/30 10:29:45;;;;;;;7.80;2.20;;;;;;;;;;5104177;28;20119;-76
2023/09/30 10:32:11;;;;;;;8.25;2.47;;;;;;;;;;5111396;28;20079;-77
2023/09/30 10:34:37;;;;;;;6.22;2.40;;;;;;;;;;5111897;28;20043;-77
2023/09/30 10:37:22;;;;;;;7.88;2.60;;;;;;;;;;5107633;28;20063;-78
2023/09/30 10:39:58;;;;;;;9.90;2.75;;;;;;;;;;5106087;28;20056;-77
2023/09/30 10:42:44;;;;;;;5.70;2.20;;;;;;;;;;5102148;28;20050;-78
2023/09/30 10:45:30;;;;;;;5.65;2.67;;;;;;;;;;5098747;28;20043;-77
2023/09/30 10:47:56;;;;;;;5.75;2.50;;;;;;;;;;5099418;28;20058;-77
2023/09/30 10:50:41;;;;;;;7.28;2.20;;;;;;;;;;5112702;28;20113;-77
2023/09/30 10:53:07;;;;;;;5.50;1.90;;;;;;;;;;5104659;28;20047;-77
2023/09/30 10:55:33;;;;;;;5.32;2.15;;;;;;;;;;5128126;27;20513;-77
2023/09/30 10:57:59;;;;;;;11.77;2.50;;;;;;;;;;5114737;27;20048;-77
2023/09/30 11:00:25;;;;;;;5.78;2.50;;;;;;;;;;5105887;28;20043;-77
2023/09/30 11:02:52;;;;;;;5.10;2.20;;;;;;;;;;5116638;28;20483;-77
2023/09/30 11:05:20;;;;;;;8.27;2.22;;;;;;;;;;5116716;28;20082;-76
2023/09/30 11:07:50;;;;;;;6.95;2.25;;;;;;;;;;5106450;28;20039;-77
2023/09/30 11:10:17;;;;;;;7.50;2.08;;;;;;;;;;5116804;28;20158;-77
2023/09/30 11:12:58;;;;;;;6.65;2.00;;;;;;;;;;5110629;28;20126;-77
2023/09/30 11:15:27;;;;;;;7.93;2.22;;;;;;;;;;5110443;27;20048;-77
2023/09/30 11:17:53;;;;;;;8.45;2.13;;;;;;;;;;5116445;28;20048;-77
2023/09/30 11:20:20;;;;;;;7.68;2.22;;;;;;;;;;5116212;28;20063;-77
2023/09/30 11:22:47;;;;;;;6.82;2.35;;;;;;;;;;5113215;28;20050;-77
2023/09/30 11:25:18;;;;;;;6.13;2.20;;;;;;;;;;5114748;28;20048;-78
2023/09/30 11:27:45;;;;;;;7.57;2.28;;;;;;;;;;5116394;28;20048;-78
2023/09/30 11:30:12;;;;;;;5.25;1.98;;;;;;;;;;5106737;28;20072;-78
2023/09/30 11:32:38;;;;;;;6.70;2.42;;;;;;;;;;5100298;28;20144;-77
2023/09/30 11:35:10;;;;;;;4.82;2.10;;;;;;;;;;5111938;28;20048;-79
2023/09/30 11:37:37;;;;;;;7.13;2.20;;;;;;;;;;5109695;28;20488;-77
2023/09/30 11:40:13;;;;;;;5.20;2.35;;;;;;;;;;5112732;28;20103;-78
2023/09/30 11:42:39;;;;;;;8.13;2.00;;;;;;;;;;5115872;28;20052;-77
2023/09/30 11:45:20;;;;;;;5.93;2.10;;;;;;;;;;5113604;28;20491;-77
2023/09/30 11:47:46;;;;;;;3.55;2.00;;;;;;;;;;5105309;28;20081;-78
2023/09/30 11:50:12;;;;;;;6.28;2.28;;;;;;;;;;5106906;28;20052;-77
2023/09/30 11:52:41;;;;;;;6.97;2.47;;;;;;;;;;5108222;27;20055;-78
2023/09/30 11:55:07;;;;;;;6.13;2.00;;;;;;;;;;5106259;28;20055;-77
2023/09/30 11:57:34;;;;;;;7.07;2.55;;;;;;;;;;5095346;28;20126;-78
2023/09/30 12:00:00;;;;;;;5.93;2.17;;;;;;;;;;5102175;27;20572;-78
2023/09/30 12:02:26;;;;;;;6.57;2.10;;;;;;;;;;5115022;28;20073;-77
2023/09/30 12:04:53;;;;;;;5.95;2.15;;;;;;;;;;5115145;28;20111;-77
2023/09/30 12:07:19;;;;;;;6.00;2.25;;;;;;;;;;5115092;28;20427;-78
2023/09/30 12:09:45;;;;;;;5.35;2.08;;;;;;;;;;5108771;28;20047;-78
2023/09/30 12:12:14;;;;;;;6.90;2.35;;;;;;;;;;5109317;28;20123;-77
2023/09/30 12:14:40;;;;;;;4.63;2.05;;;;;;;;;;5095262;28;20052;-77
2023/09/30 12:17:10;;;;;;;6.80;2.85;;;;;;;;;;5108366;28;20079;-78
2023/09/30 12:19:36;;;;;;;7.85;2.20;;;;;;;;;;5113770;27;20050;-77
2023/09/30 12:22:02;;;;;;;9.20;2.30;;;;;;;;;;5119188;27;20044;-78
2023/09/30 12:24:28;;;;;;;7.15;2.10;;;;;;;;;;5104739;28;20047;-77
2023/09/30 12:26:55;;;;;;;4.55;2.00;;;;;;;;;;5098573;28;20043;-77
2023/09/30 12:29:22;;;;;;;6.30;2.17;;;;;;;;;;5103370;28;20052;-77
2023/09/30 12:31:49;;;;;;;6.88;1.90;;;;;;;;;;5111865;28;20502;-77
2023/09/30 12:34:15;;;;;;;5.65;2.10;;;;;;;;;;5105313;28;20362;-77
2023/09/30 12:36:41;;;;;;;4.63;2.10;;;;;;;;;;5114275;28;20526;-77
2023/09/30 12:39:11;;;;;;;7.70;1.95;;;;;;;;;;5108428;28;20051;-77
2023/09/30 12:41:40;;;;;;;5.07;2.28;;;;;;;;;;5097286;28;20036;-78
2023/09/30 12:44:10;;;;;;;8.05;2.70;;;;;;;;;;5104940;28;20047;-78
2023/09/30 12:46:39;;;;;;;7.55;2.33;;;;;;;;;;5110858;28;20145;-77
2023/09/30 12:49:05;;;;;;;8.18;2.40;;;;;;;;;;5112116;28;20042;-77
2023/09/30 12:51:31;;;;;;;5.07;2.13;;;;;;;;;;5114927;28;20040;-78
2023/09/30 12:54:00;;;;;;;6.65;2.50;;;;;;;;;;5110442;28;20089;-78
2023/09/30 12:56:29;;;;;;;7.68;2.55;;;;;;;;;;5114516;28;20050;-77
2023/09/30 12:58:55;;;;;;;6.53;2.10;;;;;;;;;;5102967;28;20040;-77
2023/09/30 13:01:22;;;;;;;7.82;2.65;;;;;;;;;;5099091;28;20195;-77
2023/09/30 13:03:48;;;;;;;7.82;2.40;;;;;;;;;;5107673;28;20051;-77
2023/09/30 13:06:16;;;;;;;8.23;2.45;;;;;;;;;;5113926;27;20035;-77
2023/09/30 13:08:42;;;;;;;6.35;2.10;;;;;;;;;;5106892;28;20123;-77
2023/09/30 13:11:08;;;;;;;5.53;2.30;;;;;;;;;;5101335;28;20032;-77
2023/09/30 13:13:35;;;;;;;5.80;2.00;;;;;;;;;;5108391;28;20063;-77
2023/09/30 13:16:01;;;;;;;6.93;2.30;;;;;;;;;;5104854;28;20130;-78
2023/09/30 13:18:27;;;;;;;5.25;2.65;;;;;;;;;;5100198;28;20500;-80
2023/09/30 13:20:54;;;;;;;5.13;2.45;;;;;;;;;;5101534;28;20051;-77
2023/09/30 13:23:20;;;;;;;6.82;2.50;;;;;;;;;;5106408;28;20047;-77
2023/09/30 13:25:47;;;;;;;6.82;2.20;;;;;;;;;;5111927;27;20149;-77
2023/09/30 13:28:13;;;;;;;11.93;2.42;;;;;;;;;;5104066;27;20069;-77
2023/09/30 13:30:39;;;;;;;6.70;2.30;;;;;;;;;;5103711;28;20063;-77
2023/09/30 13:33:05;;;;;;;7.57;2.10;;;;;;;;;;5106195;28;20070;-76
2023/09/30 13:35:32;;;;;;;7.97;2.20;;;;;;;;;;5112568;27;20534;-76
2023/09/30 13:37:58;;;;;;;7.05;2.60;;;;;;;;;;5111488;27;20051;-77
2023/09/30 13:40:24;;;;;;;7.88;2.30;;;;;;;;;;5092089;28;20056;-77
2023/09/30 13:42:50;;;;;;;8.98;2.58;;;;;;;;;;5106133;28;20043;-77
2023/09/30 13:45:17;;;;;;;14.25;3.92;;;;;;;;;;5113297;28;20521;-77
2023/09/30 13:47:43;;;;;;;10.43;2.90;;;;;;;;;;5108439;28;20040;-77
2023/09/30 13:50:09;;;;;;;11.48;3.10;;;;;;;;;;5099095;28;20036;-77
2023/09/30 13:52:36;;;;;;;11.63;3.35;;;;;;;;;;5113211;28;20410;-77
2023/09/30 13:55:03;;;;;;;24.98;5.65;;;;;;;;;;5098105;28;20583;-76
2023/09/30 13:57:29;;;;;;;11.80;4.47;;;;;;;;;;5108028;28;20092;-76
2023/09/30 13:59:55;;;;;;;36.40;7.90;;;;;;;;;;5105527;28;20057;-76
2023/09/30 14:02:22;;;;;;;16.27;4.38;;;;;;;;;;5113482;28;20046;-76
2023/09/30 14:04:48;;;;;;;8.52;3.13;;;;;;;;;;5093006;28;20051;-76
2023/09/30 14:07:17;;;;;;;21.77;5.85;;;;;;;;;;5094553;28;20441;-77
2023/09/30 14:09:44;;;;;;;10.07;2.75;;;;;;;;;;5104661;28;20108;-77
2023/09/30 14:12:10;;;;;;;8.88;3.65;;;;;;;;;;5094135;28;20487;-76
2023/09/30 14:14:36;;;;;;;7.68;3.25;;;;;;;;;;5112917;28;20050;-76
2023/09/30 14:17:10;;;;;;;18.10;5.50;;;;;;;;;;5113152;28;20062;-76
2023/09/30 14:19:36;;;;;;;15.02;4.35;;;;;;;;;;5105173;28;20500;-77
2023/09/30 14:22:04;;;;;;;19.40;6.30;;;;;;;;;;5107061;28;20078;-77
2023/09/30 14:24:30;;;;;;;6.53;2.38;;;;;;;;;;5106027;28;20502;-77
2023/09/30 14:26:56;;;;;;;8.35;3.00;;;;;;;;;;5094747;28;20047;-77
2023/09/30 14:29:24;;;;;;;6.35;2.55;;;;;;;;;;5106332;28;20044;-76
2023/09/30 14:31:50;;;;;;;8.52;2.65;;;;;;;;;;5117300;28;20087;-76
2023/09/30 15:36:18;;;;;;;8.00;2.47;;;;;;;;;;6296402;22;20057;-84
2023/09/30 15:38:58;;;;;;;8.15;2.70;;;;;;;;;;6233665;22;20066;-85
2023/09/30 15:47:56;;;;;;;5.60;2.67;;;;;;;;;;6251131;22;20483;-85